Time;durP1;ratioP1;P1;durP2;ratioP2;P2;SDS_P1;SDS_P2;PMS_P1;PMS_P2;Temp;Humidity;BMP_temperature;BMP_pressure;BME280_temperature;BME280_humidity;BME280_pressure;Samples;Min_cycle;Max_cycle;Signal;HPM_P1;HPM_P2
2024/04/23 00:00:43;;;;;;;13.70;6.53;;;;;;;31.10;88.05;100718.47;5363113;26;68972;-29
2024/04/23 00:03:14;;;;;;;15.40;9.60;;;;;;;31.23;86.02;100727.47;5385705;26;65042;-30
2024/04/23 00:05:45;;;;;;;23.10;11.18;;;;;;;31.29;86.67;100738.25;5380901;26;68406;-30
2024/04/23 00:08:16;;;;;;;18.23;11.45;;;;;;;31.35;85.74;100733.81;5383754;26;66187;-30
2024/04/23 00:10:47;;;;;;;33.35;12.65;;;;;;;31.37;86.77;100735.28;5383734;26;69419;-30
2024/04/23 00:13:19;;;;;;;29.70;11.30;;;;;;;31.34;86.86;100734.84;5383309;26;65236;-29
2024/04/23 00:15:49;;;;;;;27.70;10.23;;;;;;;31.43;85.73;100749.81;5386199;26;69009;-29
2024/04/23 00:18:20;;;;;;;21.13;10.67;;;;;;;31.49;86.41;100754.31;5385334;26;66696;-29
2024/04/23 00:20:55;;;;;;;20.33;9.93;;;;;;;31.51;86.81;100752.22;5384891;26;69335;-29
2024/04/23 00:23:26;;;;;;;17.88;9.23;;;;;;;31.57;86.71;100761.31;5364879;26;65357;-29
2024/04/23 00:25:57;;;;;;;12.68;9.15;;;;;;;31.57;86.15;100767.56;5381757;26;67570;-29
2024/04/23 00:28:28;;;;;;;12.93;8.33;;;;;;;31.61;85.83;100774.16;5385184;26;64360;-29
2024/04/23 00:30:59;;;;;;;16.70;9.05;;;;;;;31.65;86.43;100774.56;5385127;26;68634;-29
2024/04/23 00:33:30;;;;;;;13.55;8.07;;;;;;;31.66;86.49;100770.78;5382075;26;65233;-29
2024/04/23 00:36:01;;;;;;;13.00;8.40;;;;;;;31.73;85.74;100786.97;5385039;26;67506;-29
2024/04/23 00:38:32;;;;;;;9.80;8.13;;;;;;;31.74;87.18;100785.94;5384492;26;65415;-29
2024/04/23 00:41:04;;;;;;;9.60;7.18;;;;;;;31.77;85.77;100788.16;5381890;26;68626;-29
2024/04/23 00:43:35;;;;;;;9.88;7.20;;;;;;;31.80;86.13;100787.72;5383526;26;64051;-30
2024/04/23 00:46:09;;;;;;;9.30;6.77;;;;;;;31.84;86.92;100799.75;5385663;26;69072;-29
2024/04/23 00:48:40;;;;;;;9.43;6.85;;;;;;;31.86;85.30;100805.78;5384184;26;65028;-29
2024/04/23 00:51:12;;;;;;;6.80;6.10;;;;;;;31.87;85.66;100810.13;5385615;26;67229;-29
2024/04/23 00:53:43;;;;;;;9.52;6.03;;;;;;;31.80;85.35;100798.56;5383787;26;64951;-29
2024/04/23 00:56:17;;;;;;;6.95;6.40;;;;;;;31.93;87.04;100814.69;5385078;26;69670;-30
2024/04/23 00:58:48;;;;;;;8.20;5.88;;;;;;;31.94;86.05;100818.25;5385304;26;65673;-30
2024/04/23 01:01:19;;;;;;;6.90;6.30;;;;;;;31.96;85.32;100825.09;5380524;26;68970;-30
2024/04/23 01:03:50;;;;;;;5.50;5.00;;;;;;;31.97;85.08;100820.50;5384658;26;65186;-29
2024/04/23 01:06:22;;;;;;;14.80;6.13;;;;;;;32.00;85.64;100831.69;5383834;26;69260;-30
2024/04/23 01:08:53;;;;;;;9.67;5.27;;;;;;;32.00;85.44;100831.69;5379336;26;64056;-32
2024/04/23 01:11:24;;;;;;;6.30;5.50;;;;;;;32.00;85.16;100831.69;5382806;26;69756;-29
2024/04/23 01:13:55;;;;;;;6.85;4.97;;;;;;;32.00;85.15;100837.13;5384401;26;64030;-29
2024/04/23 01:16:32;;;;;;;5.00;4.55;;;;;;;31.85;85.48;100793.28;5380650;26;68540;-30
2024/04/23 01:19:05;;;;;;;10.00;5.07;;;;;;;32.08;85.20;100836.00;5383069;26;65368;-30
2024/04/23 01:22:03;;;;;;;5.25;4.85;;;;;;;32.06;87.47;100840.81;5380098;26;68761;-30
2024/04/23 01:24:39;;;;;;;6.53;4.55;;;;;;;31.89;85.65;100813.47;5379378;26;65018;-29
2024/04/23 01:27:11;;;;;;;9.50;4.72;;;;;;;32.12;84.92;100844.50;5382599;26;69288;-29
2024/04/23 01:29:42;;;;;;;5.23;4.83;;;;;;;32.12;85.06;100847.19;5383864;26;65008;-30
2024/04/23 01:32:13;;;;;;;7.47;4.68;;;;;;;32.13;84.54;100840.75;5384962;26;68631;-29
2024/04/23 01:34:45;;;;;;;4.35;4.05;;;;;;;32.16;85.13;100845.69;5382459;26;64263;-29
2024/04/23 01:37:17;;;;;;;;;;;;;;;32.12;87.21;100849.91;5381623;26;67569;-30
2024/04/23 01:39:48;;;;;;;4.82;4.20;;;;;;;32.21;84.75;100851.28;5381626;26;64955;-29
2024/04/23 01:42:20;;;;;;;4.55;4.15;;;;;;;32.21;84.47;100843.13;5376307;26;67203;-30
2024/04/23 01:44:52;;;;;;;4.40;4.00;;;;;;;32.25;84.04;100855.16;5365280;26;64737;-29
2024/04/23 01:47:23;;;;;;;;;;;;;;;32.19;86.72;100858.81;5381896;26;67792;-30
2024/04/23 01:49:55;;;;;;;5.72;4.25;;;;;;;32.30;83.69;100862.63;5386321;26;65155;-30
2024/04/23 01:52:26;;;;;;;5.88;4.18;;;;;;;32.32;83.09;100855.91;5393247;26;68901;-30
2024/04/23 01:54:58;;;;;;;4.50;4.20;;;;;;;32.35;83.13;100860.88;5381363;26;64965;-30
2024/04/23 01:57:29;;;;;;;5.15;4.55;;;;;;;32.36;83.95;100857.09;5374076;26;68846;-38
2024/04/23 02:00:15;;;;;;;7.33;4.53;;;;;;;32.40;84.74;100858.31;5384475;26;65172;-30
2024/04/23 02:02:48;;;;;;;4.75;4.30;;;;;;;32.42;82.64;100864.31;5381857;26;69064;-32
2024/04/23 02:05:19;;;;;;;4.70;4.30;;;;;;;32.47;83.80;100864.47;5383932;26;63720;-31
2024/04/23 02:07:51;;;;;;;6.47;4.72;;;;;;;32.49;82.50;100862.38;5380663;26;69190;-30
2024/04/23 02:10:23;;;;;;;8.13;4.43;;;;;;;32.54;81.93;100858.13;5370441;26;64638;-29
2024/04/23 02:12:54;;;;;;;4.90;4.60;;;;;;;32.58;83.01;100853.88;5374270;26;69375;-31
2024/04/23 02:15:25;;;;;;;4.80;4.40;;;;;;;32.60;83.08;100851.78;5383332;26;64953;-30
2024/04/23 02:17:56;;;;;;;7.57;4.90;;;;;;;32.58;82.35;100845.75;5383133;26;70194;-31
2024/04/23 02:20:28;;;;;;;5.13;4.70;;;;;;;32.66;82.18;100846.22;5383933;26;64763;-29
2024/04/23 02:22:59;;;;;;;4.65;4.25;;;;;;;32.70;81.21;100857.44;5386698;26;69100;-30
2024/04/23 02:25:30;;;;;;;4.13;3.83;;;;;;;32.71;81.74;100840.09;5396266;26;63545;-33
2024/04/23 02:28:02;;;;;;;4.17;3.77;;;;;;;32.77;82.05;100847.31;5405671;26;68265;-32
2024/04/23 02:30:34;;;;;;;4.65;4.35;;;;;;;32.79;81.47;100845.19;5385970;26;64874;-29
2024/04/23 02:33:10;;;;;;;5.13;4.72;;;;;;;32.85;81.99;100849.69;5386285;26;67835;-30
2024/04/23 02:35:41;;;;;;;4.70;4.40;;;;;;;32.90;81.65;100852.53;5382413;26;63982;-30
2024/04/23 02:38:12;;;;;;;4.72;4.30;;;;;;;32.90;80.82;100847.09;5382237;26;69087;-30
2024/04/23 02:40:44;;;;;;;4.32;4.03;;;;;;;32.95;81.05;100854.53;5384972;26;65799;-30
2024/04/23 02:43:15;;;;;;;4.60;4.20;;;;;;;33.01;81.73;100847.34;5384252;26;69632;-30
2024/04/23 02:45:46;;;;;;;4.68;4.28;;;;;;;33.05;80.97;100848.56;5384391;26;65162;-30
2024/04/23 02:48:17;;;;;;;4.07;3.78;;;;;;;32.96;80.25;100820.03;5377891;26;68738;-29
2024/04/23 02:50:49;;;;;;;4.72;4.32;;;;;;;33.12;80.05;100838.38;5384350;26;65185;-30
2024/04/23 02:53:20;;;;;;;6.95;4.20;;;;;;;33.17;81.27;100841.22;5386151;26;67786;-30
2024/04/23 02:55:52;;;;;;;4.10;3.80;;;;;;;33.20;80.39;100827.16;5383191;26;65176;-29
2024/04/23 02:58:23;;;;;;;3.92;3.70;;;;;;;33.26;80.54;100828.09;5390999;26;68818;-30
2024/04/23 03:00:54;;;;;;;4.35;4.10;;;;;;;33.29;79.52;100828.47;5403204;26;65307;-31
2024/04/23 03:03:25;;;;;;;5.38;3.45;;;;;;;33.30;80.11;100813.78;5382698;26;68613;-31
2024/04/23 03:05:57;;;;;;;3.58;3.17;;;;;;;33.35;79.81;100822.06;5363806;26;63754;-31
2024/04/23 03:08:29;;;;;;;4.18;3.83;;;;;;;33.40;79.33;100817.78;5385413;26;68393;-30
2024/04/23 03:11:04;;;;;;;3.45;3.15;;;;;;;33.43;80.25;100811.88;5385299;26;64110;-29
2024/04/23 03:13:36;;;;;;;5.18;3.47;;;;;;;33.48;80.04;100803.81;5385865;26;68394;-29
2024/04/23 03:16:07;;;;;;;3.70;3.40;;;;;;;33.50;78.72;100804.41;5385640;26;63778;-32
2024/04/23 03:18:39;;;;;;;4.35;3.00;;;;;;;33.43;78.92;100784.66;5386082;26;68447;-31
2024/04/23 03:21:10;;;;;;;4.65;3.53;;;;;;;33.58;79.26;100794.00;5383171;26;64769;-29
2024/04/23 03:23:41;;;;;;;4.97;3.45;;;;;;;33.60;79.07;100796.50;5381064;26;69782;-30
2024/04/23 03:26:12;;;;;;;4.80;3.25;;;;;;;33.63;79.36;100784.28;5382097;26;64370;-31
2024/04/23 03:28:44;;;;;;;3.53;2.85;;;;;;;33.68;78.93;100781.69;5383519;26;68698;-30
2024/04/23 03:31:15;;;;;;;3.65;3.35;;;;;;;33.70;78.98;100772.22;5378714;26;65145;-33
2024/04/23 03:33:47;;;;;;;5.85;3.30;;;;;;;33.73;79.15;100774.44;5384030;26;68766;-33
2024/04/23 03:36:18;;;;;;;2.80;2.60;;;;;;;33.76;78.54;100778.56;5381367;26;65021;-31
2024/04/23 03:38:50;;;;;;;2.72;2.38;;;;;;;33.79;78.88;100778.09;5375041;26;69188;-29
2024/04/23 03:41:21;;;;;;;3.00;2.80;;;;;;;33.83;78.46;100778.44;5382961;26;64997;-31
2024/04/23 03:43:52;;;;;;;3.17;2.88;;;;;;;33.86;78.36;100767.06;5382422;26;68483;-30
2024/04/23 03:46:23;;;;;;;3.20;2.90;;;;;;;33.90;77.88;100765.50;5382206;26;65661;-30
2024/04/23 03:48:55;;;;;;;3.00;2.80;;;;;;;33.92;78.43;100772.34;5382844;26;67390;-32
2024/04/23 03:51:26;;;;;;;2.80;2.60;;;;;;;33.94;77.78;100769.41;5383465;26;63601;-29
2024/04/23 03:53:57;;;;;;;2.83;2.60;;;;;;;33.97;77.73;100761.56;5385478;26;68841;-30
2024/04/23 03:56:29;;;;;;;2.78;2.58;;;;;;;34.00;77.85;100771.16;5386052;26;64688;-32
2024/04/23 03:59:00;;;;;;;2.80;2.60;;;;;;;34.02;77.18;100769.84;5383166;26;69189;-30
2024/04/23 04:01:32;;;;;;;5.85;2.80;;;;;;;34.05;77.18;100760.38;5384802;26;63943;-30
2024/04/23 04:06:53;;;;;;;2.80;2.60;;;;;;;34.11;76.74;100764.84;5394606;26;64116;-30
2024/04/23 04:09:24;;;;;;;2.83;2.53;;;;;;;34.13;76.97;100757.25;5402072;26;67663;-29
2024/04/23 04:11:58;;;;;;;2.50;2.40;;;;;;;34.17;76.43;100757.59;5382608;26;64850;-30
2024/04/23 04:14:30;;;;;;;2.50;2.30;;;;;;;34.19;77.11;100753.56;5384708;26;67836;-31
2024/04/23 04:17:01;;;;;;;2.63;2.42;;;;;;;34.21;76.54;100751.41;5383857;26;65470;-30
2024/04/23 04:19:32;;;;;;;2.92;2.42;;;;;;;34.25;76.92;100760.72;5382369;26;69261;-31
2024/04/23 04:22:04;;;;;;;4.55;2.38;;;;;;;34.28;76.25;100753.97;5386233;26;65231;-30
2024/04/23 04:24:35;;;;;;;4.20;2.53;;;;;;;34.31;76.20;100747.22;5386019;26;69164;-32
2024/04/23 04:27:06;;;;;;;2.35;2.15;;;;;;;34.33;76.53;100739.63;5384262;26;64912;-30
2024/04/23 04:29:37;;;;;;;1.92;1.83;;;;;;;34.36;76.25;100745.38;5364077;26;68772;-30
2024/04/23 04:32:09;;;;;;;2.53;1.90;;;;;;;34.37;76.53;100730.69;5383985;26;65079;-29
2024/04/23 04:34:40;;;;;;;2.53;2.33;;;;;;;34.44;76.46;100730.53;5385182;26;68907;-30
2024/04/23 04:37:12;;;;;;;2.30;2.10;;;;;;;34.43;75.68;100723.44;5384623;26;64087;-32
2024/04/23 04:39:43;;;;;;;2.47;2.38;;;;;;;34.46;75.97;100729.22;5384226;26;68782;-30
2024/04/23 04:42:14;;;;;;;2.25;2.08;;;;;;;34.50;75.98;100724.09;5392930;26;65263;-30
2024/04/23 04:44:46;;;;;;;1.67;1.58;;;;;;;34.55;75.66;100726.91;5384917;26;68849;-30
2024/04/23 04:47:17;;;;;;;2.33;1.75;;;;;;;34.56;75.60;100716.84;5381384;26;64329;-32
2024/04/23 04:49:48;;;;;;;;;;;;;;;34.51;75.76;100709.41;5383890;26;67599;-31
2024/04/23 04:52:20;;;;;;;2.30;2.00;;;;;;;34.59;75.79;100706.28;5379087;26;65415;-30
2024/04/23 04:54:51;;;;;;;2.50;2.30;;;;;;;34.63;75.54;100704.72;5379689;26;68308;-30
2024/04/23 04:57:23;;;;;;;2.67;2.47;;;;;;;34.64;75.16;100692.72;5380138;26;65588;-30
2024/04/23 04:59:54;;;;;;;2.55;2.33;;;;;;;34.68;75.61;100687.59;5383905;26;68898;-31
2024/04/23 05:02:26;;;;;;;1.77;1.67;;;;;;;34.70;75.49;100680.84;5359734;26;64198;-31
2024/04/23 05:04:57;;;;;;;;;;;;;;;34.69;74.94;100672.94;5384711;26;68190;-31
2024/04/23 05:07:28;;;;;;;2.55;2.08;;;;;;;34.76;74.73;100672.72;5383302;26;65057;-30
2024/04/23 05:10:00;;;;;;;2.33;2.13;;;;;;;34.77;75.02;100667.03;5384455;26;68150;-31
2024/04/23 05:12:34;;;;;;;1.70;1.60;;;;;;;34.80;74.68;100660.25;5382227;26;64235;-31
2024/04/23 05:15:06;;;;;;;4.82;2.13;;;;;;;34.83;74.78;100657.03;5390735;26;69259;-33
2024/04/23 05:17:37;;;;;;;2.30;2.10;;;;;;;34.84;74.97;100642.31;5383268;26;65163;-31
2024/04/23 05:20:11;;;;;;;2.08;1.98;;;;;;;34.86;74.87;100634.72;5348586;26;68809;-30
2024/04/23 05:22:43;;;;;;;2.17;1.98;;;;;;;34.89;74.32;100642.38;5370628;26;65718;-30
2024/04/23 05:25:14;;;;;;;1.90;1.80;;;;;;;34.91;74.64;100642.97;5384467;26;67977;-31
2024/04/23 05:27:45;;;;;;;2.72;2.00;;;;;;;34.93;74.05;100635.34;5384395;26;65143;-33
2024/04/23 05:33:06;;;;;;;2.00;1.80;;;;;;;34.98;74.54;100610.88;5383787;26;64789;-33
2024/04/23 05:35:37;;;;;;;;;;;;;;;34.95;74.14;100605.94;5385052;26;69103;-31
2024/04/23 05:38:08;;;;;;;1.70;1.60;;;;;;;35.04;74.42;100598.94;5384089;26;65354;-32
2024/04/23 05:40:41;;;;;;;2.20;1.90;;;;;;;35.07;73.88;100587.56;5381910;26;68825;-31
2024/04/23 05:43:13;;;;;;;4.15;1.90;;;;;;;35.09;74.14;100587.31;5366888;26;64770;-30
2024/04/23 05:45:44;;;;;;;2.08;1.65;;;;;;;35.10;73.90;100573.44;5381963;26;68662;-31
2024/04/23 05:48:55;;;;;;;2.05;1.95;;;;;;;35.12;73.07;100574.00;5386617;26;65049;-31
2024/04/23 05:52:21;;;;;;;1.90;1.67;;;;;;;35.19;73.80;100567.50;5388887;26;68916;-31
2024/04/23 05:55:32;;;;;;;;;;;;;;;35.17;72.98;100553.31;5385971;26;64242;-33
2024/04/23 05:58:05;;;;;;;1.70;1.60;;;;;;;35.30;73.64;100559.19;5384801;26;68955;-33
2024/04/23 06:00:36;;;;;;;1.85;1.65;;;;;;;35.24;73.34;100532.09;5386630;26;64723;-32
2024/04/23 06:03:07;;;;;;;;;;;;;;;35.25;73.24;100541.97;5386448;26;68731;-34
2024/04/23 06:05:38;;;;;;;1.90;1.80;;;;;;;35.38;73.47;100538.78;5386542;26;65093;-30
2024/04/23 06:08:09;;;;;;;;;;;;;;;35.36;73.11;100540.97;5386936;26;68451;-31
2024/04/23 06:10:41;;;;;;;3.55;1.42;;;;;;;35.45;73.09;100528.50;5385060;26;66076;-31
2024/04/23 06:13:13;;;;;;;1.58;1.48;;;;;;;35.51;73.05;100527.44;5386098;26;69518;-31
2024/04/23 06:15:45;;;;;;;1.90;1.80;;;;;;;35.54;72.97;100526.09;5386912;26;64341;-35
2024/04/23 06:18:22;;;;;;;;;;;;;;;35.49;72.65;100515.16;5384499;26;67433;-33
2024/04/23 06:20:54;;;;;;;1.73;1.55;;;;;;;35.63;72.65;100510.09;5386828;26;65031;-30
2024/04/23 06:23:27;;;;;;;1.92;1.65;;;;;;;35.68;72.82;100521.88;5392956;26;68665;-31
2024/04/23 06:25:59;;;;;;;6.03;1.65;;;;;;;35.72;72.86;100511.28;5359958;26;64970;-34
2024/04/23 06:28:33;;;;;;;1.70;1.60;;;;;;;35.70;72.63;100502.53;5386357;26;68670;-31
2024/04/23 06:31:09;;;;;;;1.88;1.77;;;;;;;35.80;72.54;100508.03;5383227;26;65182;-32
2024/04/23 06:33:41;;;;;;;2.00;1.90;;;;;;;35.82;72.22;100496.88;5386709;26;68692;-30
2024/04/23 06:36:11;;;;;;;;;;;;;;;35.83;71.80;100502.06;5387347;26;65832;-31
2024/04/23 06:38:42;;;;;;;1.70;1.60;;;;;;;35.97;72.32;100492.31;5381961;26;69428;-31
2024/04/23 06:41:13;;;;;;;;;;;;;;;35.91;71.05;100487.94;5385556;26;64566;-30
2024/04/23 06:43:50;;;;;;;1.50;1.40;;;;;;;36.06;72.30;100489.94;5385599;26;68759;-31
2024/04/23 06:46:21;;;;;;;;;;;;;;;36.01;71.02;100484.41;5387466;26;65100;-30
2024/04/23 06:48:56;;;;;;;2.13;1.67;;;;;;;36.18;72.04;100481.53;5379923;26;68313;-30
2024/04/23 06:51:27;;;;;;;1.25;1.23;;;;;;;36.22;71.98;100466.28;5382501;26;65179;-32
2024/04/23 06:54:02;;;;;;;1.60;1.50;;;;;;;36.27;71.41;100458.06;5386472;26;68669;-30
2024/04/23 06:56:34;;;;;;;1.80;1.70;;;;;;;36.30;71.93;100463.00;5394615;26;64650;-32
2024/04/23 06:59:08;;;;;;;1.83;1.73;;;;;;;36.34;71.62;100457.84;5375737;26;68487;-34
2024/04/23 07:01:40;;;;;;;3.80;1.42;;;;;;;36.44;71.59;100460.59;5385678;26;65038;-33
2024/04/23 07:04:11;;;;;;;;;;;;;;;36.40;70.39;100463.03;5385727;26;67501;-31
2024/04/23 07:06:42;;;;;;;1.60;1.50;;;;;;;36.59;71.31;100454.41;5383384;26;63968;-33
2024/04/23 07:09:14;;;;;;;1.42;1.33;;;;;;;36.63;71.00;100455.47;5385886;26;68924;-32
2024/04/23 07:11:46;;;;;;;1.55;1.38;;;;;;;36.70;70.76;100450.59;5380811;26;65847;-31
2024/04/23 07:14:17;;;;;;;1.33;1.23;;;;;;;36.75;70.84;100447.03;5384148;26;68038;-31
2024/04/23 07:16:49;;;;;;;2.10;1.85;;;;;;;36.80;70.29;100439.66;5385240;26;63717;-32
2024/04/23 07:19:20;;;;;;;;;;;;;;;36.80;69.63;100434.19;5383520;26;68487;-32
2024/04/23 07:21:51;;;;;;;1.50;1.40;;;;;;;36.96;70.72;100426.81;5379076;26;65462;-31
2024/04/23 07:24:22;;;;;;;1.58;1.48;;;;;;;37.02;70.47;100424.94;5384040;26;68724;-32
2024/04/23 07:26:54;;;;;;;1.50;1.40;;;;;;;37.09;70.03;100425.50;5376417;26;63931;-32
2024/04/23 07:29:27;;;;;;;1.88;1.50;;;;;;;37.15;69.95;100418.94;5384048;26;68973;-31
2024/04/23 07:31:59;;;;;;;1.83;1.58;;;;;;;37.19;70.04;100416.47;5389302;26;65062;-31
2024/04/23 07:34:30;;;;;;;;;;;;;;;37.19;68.08;100419.19;5383614;26;68599;-31
2024/04/23 07:37:01;;;;;;;1.40;1.30;;;;;;;37.33;69.41;100410.19;5382870;26;65718;-31
2024/04/23 07:39:32;;;;;;;1.52;1.42;;;;;;;37.40;69.14;100409.88;5381147;26;67942;-31
2024/04/23 07:42:04;;;;;;;1.55;1.45;;;;;;;37.46;68.90;100402.47;5383795;26;65090;-31
2024/04/23 07:44:35;;;;;;;;;;;;;;;37.42;68.20;100396.75;5380816;26;68347;-30
2024/04/23 07:47:07;;;;;;;2.05;1.85;;;;;;;37.55;69.28;100401.66;5380882;26;64276;-30
2024/04/23 07:49:38;;;;;;;;;;;;;;;37.51;67.31;100394.28;5384209;26;68740;-31
2024/04/23 07:52:09;;;;;;;1.60;1.50;;;;;;;37.65;69.05;100389.88;5382927;26;65228;-34
2024/04/23 07:54:40;;;;;;;2.42;1.45;;;;;;;37.69;69.05;100390.94;5376837;26;67809;-32
2024/04/23 07:57:11;;;;;;;;;;;;;;;37.65;67.36;100383.59;5383714;26;64958;-32
2024/04/23 07:59:43;;;;;;;2.72;1.30;;;;;;;37.79;68.18;100379.97;5384073;26;68385;-33
2024/04/23 08:02:14;;;;;;;1.63;1.35;;;;;;;37.83;68.92;100371.19;5378062;26;64645;-31
2024/04/23 08:04:48;;;;;;;1.40;1.30;;;;;;;37.85;68.08;100377.22;5383520;26;68021;-31
2024/04/23 08:07:20;;;;;;;1.33;1.23;;;;;;;37.87;67.72;100380.50;5381641;26;63894;-32
2024/04/23 08:09:52;;;;;;;1.50;1.40;;;;;;;37.90;68.56;100366.25;5383418;26;69424;-32
2024/04/23 08:12:23;;;;;;;1.73;1.55;;;;;;;37.92;67.94;100373.06;5378439;26;64841;-31
2024/04/23 08:14:55;;;;;;;2.28;1.55;;;;;;;37.95;67.79;100377.22;5381266;26;69622;-36
2024/04/23 08:17:26;;;;;;;;;;;;;;;37.87;67.38;100370.34;5385499;26;63683;-30
2024/04/23 08:19:58;;;;;;;1.97;1.47;;;;;;;38.01;67.76;100365.13;5384879;26;68826;-31
2024/04/23 08:22:29;;;;;;;1.73;1.25;;;;;;;38.06;67.90;100356.03;5351255;26;65249;-33
2024/04/23 08:25:00;;;;;;;;;;;;;;;37.94;67.13;100348.13;5386251;26;67667;-30
2024/04/23 08:27:31;;;;;;;1.20;1.13;;;;;;;38.07;68.38;100353.03;5384879;26;64366;-31
2024/04/23 08:30:04;;;;;;;1.30;1.20;;;;;;;38.09;67.74;100348.09;5381953;26;69062;-31
2024/04/23 08:32:37;;;;;;;1.30;1.10;;;;;;;38.11;68.42;100348.63;5412601;26;65230;-31
2024/04/23 08:35:09;;;;;;;1.30;1.15;;;;;;;38.11;67.86;100343.13;5379166;26;68662;-31
2024/04/23 08:37:46;;;;;;;1.23;1.13;;;;;;;38.11;68.19;100337.66;5376231;26;65077;-32
2024/04/23 08:40:18;;;;;;;1.30;1.20;;;;;;;38.13;68.00;100342.88;5384848;26;68772;-34
2024/04/23 08:42:52;;;;;;;1.50;1.20;;;;;;;38.07;68.17;100328.38;5377380;26;63567;-34
2024/04/23 08:45:29;;;;;;;3.78;1.42;;;;;;;37.77;68.38;100274.59;5375007;26;68149;-31
2024/04/23 08:48:03;;;;;;;2.03;1.23;;;;;;;37.91;67.71;100304.91;5385332;26;64014;-34
2024/04/23 08:50:36;;;;;;;1.50;1.33;;;;;;;38.15;68.18;100338.75;5385890;26;68084;-31
2024/04/23 08:53:11;;;;;;;1.50;1.40;;;;;;;38.13;67.59;100335.47;5384918;26;64088;-32
2024/04/23 08:55:44;;;;;;;1.38;1.23;;;;;;;38.15;67.75;100333.28;5381400;26;69329;-33
2024/04/23 08:58:16;;;;;;;1.45;1.35;;;;;;;38.15;68.22;100327.78;5385082;26;65712;-31
2024/04/23 09:00:50;;;;;;;1.45;1.20;;;;;;;38.14;66.68;100323.44;5385336;26;68427;-31
2024/04/23 09:03:28;;;;;;;1.17;1.08;;;;;;;37.95;67.59;100286.84;5383377;26;65413;-31
2024/04/23 09:06:02;;;;;;;2.28;1.42;;;;;;;38.14;67.26;100320.69;5384215;26;68230;-30
2024/04/23 09:08:34;;;;;;;1.33;1.02;;;;;;;38.13;67.15;100319.03;5381545;26;64188;-31
2024/04/23 09:11:06;;;;;;;1.55;1.30;;;;;;;38.15;67.20;100316.03;5382522;26;67378;-30
2024/04/23 09:13:38;;;;;;;1.73;1.25;;;;;;;38.12;67.20;100311.94;5396764;26;63912;-31
2024/04/23 09:16:09;;;;;;;;;;;;;;;38.02;67.29;100295.56;5383627;26;69630;-31
2024/04/23 09:18:41;;;;;;;5.15;2.03;;;;;;;38.14;67.36;100306.16;5366766;26;65151;-29
2024/04/23 09:21:13;;;;;;;4.38;1.92;;;;;;;38.09;65.95;100298.81;5378695;26;67806;-31
2024/04/23 09:23:48;;;;;;;9.70;1.83;;;;;;;37.95;65.85;100308.75;5383129;26;65626;-31
2024/04/23 09:26:25;;;;;;;3.85;1.70;;;;;;;37.96;67.15;100303.00;5384553;26;68595;-31
2024/04/23 09:28:57;;;;;;;4.65;1.85;;;;;;;37.98;67.88;100305.44;5379107;26;64773;-30
2024/04/23 09:31:36;;;;;;;3.78;1.98;;;;;;;37.83;67.33;100297.28;5383937;26;67910;-31
2024/04/23 09:34:10;;;;;;;6.88;1.50;;;;;;;37.79;67.72;100297.84;5383107;26;64751;-31
2024/04/23 09:36:41;;;;;;;4.38;1.80;;;;;;;37.86;67.98;100308.47;5383094;26;67769;-30
2024/04/23 09:39:16;;;;;;;5.85;1.65;;;;;;;37.77;67.92;100319.19;5384261;26;64232;-31
2024/04/23 09:42:00;;;;;;;1.73;1.30;;;;;;;37.74;67.41;100311.56;5378234;26;69101;-31
2024/04/23 09:44:33;;;;;;;3.15;1.75;;;;;;;37.76;67.99;100309.38;5380710;26;65411;-31
2024/04/23 09:47:06;;;;;;;4.60;1.63;;;;;;;37.71;67.51;100306.66;5386049;26;67875;-32
2024/04/23 09:49:38;;;;;;;2.05;1.83;;;;;;;37.70;67.64;100315.16;5395191;26;64950;-30
2024/04/23 09:52:11;;;;;;;;;;;;;;;37.67;67.37;100323.91;5384426;26;68614;-29
2024/04/23 09:54:44;;;;;;;4.18;1.80;;;;;;;37.66;68.07;100323.09;5383132;26;66026;-31
2024/04/23 09:57:17;;;;;;;3.38;1.73;;;;;;;37.62;67.69;100323.94;5381984;26;68498;-32
2024/04/23 09:59:49;;;;;;;6.03;1.80;;;;;;;37.62;68.37;100330.22;5382645;26;64269;-31
2024/04/23 10:02:28;;;;;;;7.63;1.85;;;;;;;37.51;67.85;100323.16;5361367;26;67741;-30
2024/04/23 10:05:05;;;;;;;2.40;1.85;;;;;;;37.39;67.49;100303.44;5382513;26;64894;-30
2024/04/23 10:08:01;;;;;;;4.43;1.50;;;;;;;37.27;67.98;100296.38;5381340;26;68863;-30
2024/04/23 10:10:47;;;;;;;5.82;2.08;;;;;;;37.29;67.83;100294.19;5365257;26;65221;-32
2024/04/23 10:13:25;;;;;;;2.63;2.42;;;;;;;37.21;66.80;100308.44;5383942;26;67709;-31
2024/04/23 10:16:09;;;;;;;3.45;1.85;;;;;;;37.33;67.26;100327.28;5380790;26;64864;-30
2024/04/23 10:18:59;;;;;;;3.95;2.00;;;;;;;37.39;67.56;100337.13;5383228;26;68940;-32
2024/04/23 10:21:39;;;;;;;2.57;2.30;;;;;;;37.04;66.63;100275.13;5393771;26;65415;-32
2024/04/23 10:24:12;;;;;;;3.38;2.13;;;;;;;37.35;66.75;100336.03;5388811;26;69635;-30
2024/04/23 10:26:44;;;;;;;6.28;2.30;;;;;;;37.31;66.81;100345.91;5380161;26;65153;-30
2024/04/23 10:29:16;;;;;;;4.35;2.30;;;;;;;37.29;66.65;100343.44;5382424;26;68534;-30
2024/04/23 10:31:54;;;;;;;7.57;2.60;;;;;;;37.27;66.53;100348.34;5383017;26;65037;-29
2024/04/23 10:34:30;;;;;;;4.68;3.15;;;;;;;37.24;66.68;100340.69;5381112;26;69235;-30
2024/04/23 10:37:01;;;;;;;10.32;2.85;;;;;;;37.25;66.25;100353.28;5381705;26;64252;-31
2024/04/23 10:39:34;;;;;;;6.07;3.05;;;;;;;37.15;66.07;100353.31;5377413;26;68897;-30
2024/04/23 10:42:11;;;;;;;2.95;2.53;;;;;;;37.11;66.23;100357.66;5384550;26;65360;-31
2024/04/23 10:44:43;;;;;;;2.92;2.55;;;;;;;36.93;66.79;100314.47;5379710;26;69053;-30
2024/04/23 10:47:16;;;;;;;2.88;2.55;;;;;;;37.07;66.88;100351.94;5384918;26;64143;-30
2024/04/23 10:49:51;;;;;;;3.13;2.35;;;;;;;36.99;66.72;100346.19;5385984;26;68754;-31
2024/04/23 10:52:25;;;;;;;3.88;2.60;;;;;;;37.02;67.10;100359.34;5375743;26;64927;-30
2024/04/23 10:54:57;;;;;;;3.10;2.10;;;;;;;37.04;66.66;100357.16;5395317;26;68239;-32
2024/04/23 10:57:30;;;;;;;6.50;2.30;;;;;;;36.99;67.36;100362.59;5376471;26;65159;-30
2024/04/23 11:00:03;;;;;;;5.72;2.20;;;;;;;36.92;68.41;100371.06;5383027;26;69477;-33
2024/04/23 11:02:40;;;;;;;2.60;2.10;;;;;;;36.94;67.64;100368.06;5384816;26;65128;-31
2024/04/23 11:05:18;;;;;;;4.15;3.75;;;;;;;36.78;68.19;100373.53;5382297;26;68712;-30
2024/04/23 11:07:54;;;;;;;6.03;3.65;;;;;;;36.67;68.12;100374.63;5386415;26;65042;-31
2024/04/23 11:10:26;;;;;;;9.27;3.33;;;;;;;36.71;67.62;100375.72;5386600;26;69404;-31
2024/04/23 11:13:01;;;;;;;4.82;3.17;;;;;;;36.61;67.62;100364.75;5413947;26;64863;-31
2024/04/23 11:15:33;;;;;;;5.72;2.70;;;;;;;36.57;67.47;100374.59;5385835;26;68689;-30
2024/04/23 11:18:05;;;;;;;5.75;3.22;;;;;;;36.49;67.44;100367.72;5380917;26;65001;-30
2024/04/23 11:20:44;;;;;;;5.35;3.30;;;;;;;36.50;67.38;100366.66;5385051;26;68678;-30
2024/04/23 11:23:20;;;;;;;4.60;3.47;;;;;;;36.40;68.12;100363.91;5385724;26;64937;-32
2024/04/23 11:25:52;;;;;;;5.32;4.50;;;;;;;36.39;67.31;100373.19;5385459;26;68653;-31
2024/04/23 11:28:25;;;;;;;6.90;3.97;;;;;;;36.24;66.62;100372.03;5387412;26;65013;-31
2024/04/23 11:30:58;;;;;;;7.28;5.28;;;;;;;36.25;67.18;100372.88;5382863;26;68106;-31
2024/04/23 11:33:31;;;;;;;4.47;4.18;;;;;;;36.28;66.64;100371.53;5386038;26;64500;-30
2024/04/23 11:36:06;;;;;;;4.35;3.95;;;;;;;36.24;66.73;100384.88;5386146;26;69106;-33
2024/04/23 11:38:45;;;;;;;5.18;4.05;;;;;;;36.07;66.68;100387.84;5385962;26;64334;-33
2024/04/23 11:41:18;;;;;;;8.02;4.15;;;;;;;36.12;66.59;100395.22;5385293;26;68896;-33
2024/04/23 11:43:50;;;;;;;7.28;3.78;;;;;;;35.87;67.11;100368.63;5383286;26;64554;-31
2024/04/23 11:46:22;;;;;;;10.07;4.13;;;;;;;36.00;67.18;100395.44;5384985;26;67984;-30
2024/04/23 11:48:54;;;;;;;7.30;3.88;;;;;;;35.97;66.72;100396.78;5386550;26;65074;-32
2024/04/23 11:51:25;;;;;;;6.72;3.83;;;;;;;36.10;66.42;100397.41;5378946;26;69602;-31
2024/04/23 11:53:57;;;;;;;3.75;3.45;;;;;;;36.06;65.85;100401.75;5384151;26;65058;-33
2024/04/23 11:56:28;;;;;;;;;;;;;;;35.97;66.14;100398.69;5386473;26;67735;-31
2024/04/23 11:59:02;;;;;;;4.72;3.08;;;;;;;36.05;66.20;100411.84;5384354;26;65694;-32
2024/04/23 12:01:35;;;;;;;9.35;3.33;;;;;;;36.06;66.74;100401.75;5383441;26;69119;-31